Airfield :
LOGIN :

Register | Disclaimer

   EN    FR    IT 

 










Legend :    VFR   Marginal VFR   IFR   Intensive IFR   Very Intensive IFR
Visi :
Ceiling :
>= 8 km
>= 3000ft
5 to 8 km
1000 to 3000 ft
1500m to 5 km
500 to 1000 ft
800 to 1500m
200 to 500 ft
< 800m
< 200 ft
Symbols :   Thunderstorms  Fog  Heavy snow  Heavy precipitations  Wind > 20 kt
SIGMETs :     Misc.  Thunderstorms  Icing  Turbulence  Mountain Waves  Volcanic Ashes






- Airport Elevation : 353 ft
- IATA code : ZAG


LDZA - Zagreb Pleso

CURRENT METAR :
  • 020300Z 05007KT 9999 -RA FEW007 OVC025 03/02 Q1021 NOSIG

EXPIRED METARs :
  • 020230Z 04006KT 360V080 9999 -RA BKN010 OVC025 03/02 Q1021 NOSIG
  • 020200Z 05005KT 9999 -RA BKN015 OVC025 03/02 Q1021 NOSIG
  • 020130Z 05005KT 010V070 9999 -RA BKN015 OVC030 04/02 Q1021 NOSIG
  • 020100Z 05006KT 020V080 9999 -RA BKN015 OVC030 04/02 Q1021 NOSIG
  • 020030Z 05007KT 010V070 9999 -RA BKN015 OVC025 04/02 Q1021 NOSIG
  • 020000Z 05007KT 020V080 9999 -RA BKN020 OVC030 04/02 Q1021 NOSIG

TAF TAF LDZA
Valid from the 02 at 00:00 until the 03 at 00:00 UTC


012325Z 0200/0300 04005KT 8000 BKN015 OVC030 TX04/0200Z TN01/0208Z
TEMPO 0200/0214 4000 -RA BR OVC005
PROB30
TEMPO 0202/0208 2000 SNRA OVC002
PROB40 0218/0300 3000 BR OVC005
ATIS : +385 1 6-259-214



MET'MAP, your aeronautical weather chart ! - Copyright ORBIFLY December 2007 - Disclaimer

ORBIFLY MET'MAP TEAM :

Programming & Development : Alexandra Zaïnal
Original concept : Baudouin d'Aumeries
Technical & hardware support : Manuel Goepfert
Assistance : Marc-Olivier Méhu




SOURCES & CREDITS :

   NOAA